Terminal Aerodrome Forecast
Issued by NWS Boston, MA

Home | Current Version | Previous Version | Text Only | Print | Product List | Glossary On
Versions: 1 2 3 4 5 6 7 8 9 10 11 12 13 14 15 16 17 18 19 20 21 22 23 24 25 26 27 28 29 30 31 32 33 34 35 36 37 38 39 40 41 42 43 44 45 46 47 48 49
000
FTUS41 KBOX 261732
TAFBOS
TAF
KBOS 261732Z 2618/2724 03007KT 2SM RASN OVC008
     FM261900 03009KT 1SM RASN OVC008
     FM262100 03011G32KT 1SM RASNPL OVC003
     FM262300 03014G32KT 1SM -RAPL OVC003
     FM270400 36014G40KT 2SM -RASNPL OVC008
     FM270600 34013G39KT P6SM OVC015
     FM271200 31010KT P6SM BKN050=

USA.gov is the U.S. government's official web portal to all federal, state and local government web resources and services.